Aviation Digital Data Service (ADDS)

Output produced by METARs form (1332 UTC 26 May 2018)
found at http://www.aviationweather.gov/adds/metars/
 
EFET 261320Z AUTO 28018G29KT 240V320 CAVOK 11/M05 Q1025
EFHA 261320Z AUTO 20006KT CAVOK 25/06 Q1026
EFHK 261320Z 17008KT 130V210 CAVOK 24/05 Q1028 NOSIG
TAF EFHK 261125Z 2612/2712 18005KT CAVOK 
     BECMG 2704/2706 01010KT
       
EFIV 261320Z AUTO 27015G27KT 240V300 CAVOK 13/M04 Q1022
EFJO 261320Z AUTO 25012KT 210V310 CAVOK 24/07 Q1025
EFJY 261320Z AUTO 29009KT CAVOK 24/06 Q1026
TAF EFJY 261122Z 2612/2712 25008G18KT CAVOK 
     BECMG 2619/2621 35010KT
       
EFKI 261320Z AUTO 28012KT CAVOK 18/03 Q1025
EFKE 261320Z AUTO 30010KT 270V350 CAVOK 17/M04 Q1026
EFKT 261320Z AUTO 27016KT 240V310 CAVOK 14/M05 Q1024
EFKK 261320Z AUTO 35009KT 300V040 CAVOK 17/M03 Q1028
EFKU 261320Z AUTO 29014KT CAVOK 23/07 Q1025
TAF EFKU 261126Z 2612/2712 28012KT CAVOK
       
EFKS 261320Z AUTO 29014KT 270V360 CAVOK 15/M05 Q1023
EFLP 261320Z AUTO 21006KT 140V300 CAVOK 25/06 Q1027
EFMA 261320Z AUTO 20006KT CAVOK 19/09 Q1028
EFMI 261320Z AUTO 25007KT 210V290 CAVOK 25/09 Q1026
EFOU 261320Z AUTO 31013KT CAVOK 16/M01 Q1027
TAF EFOU 261126Z 2612/2712 30015KT CAVOK 
     TEMPO 2612/2617 30015G25KT
       
EFPO 261320Z AUTO 31011KT CAVOK 20/05 Q1028
EFRO 261320Z AUTO 27008KT 230V310 CAVOK 15/M03 Q1025
TAF EFRO 261126Z 2612/2712 31013KT CAVOK 
     TEMPO 2612/2616 32015G25KT
       
EFSA 261320Z AUTO 27008KT 220V310 CAVOK 26/08 Q1025
EFSI 261320Z AUTO 31008KT 240V360 CAVOK 22/08 Q1027
EFTP 261320Z AUTO 30005KT CAVOK 25/07 Q1027
TAF EFTP 261122Z 2612/2712 23005KT CAVOK 
     BECMG 2707/2709 36010KT
       
EFTU 261320Z AUTO 24006KT 200V290 CAVOK 24/07 Q1027
TAF EFTU 261125Z 2612/2712 26006KT CAVOK
       
EFUT 261320Z AUTO VRB05KT CAVOK 24/06 Q1027
EFVA 261320Z AUTO 36009KT 330V050 CAVOK 19/M07 Q1028
TAF EFVA 261122Z 2612/2712 35009KT CAVOK